Time,TemperatureF,DewpointF,PressureIn,WindDirection,WindDirectionDegrees,WindSpeedMPH,WindSpeedGustMPH,Humidity,HourlyPrecipIn,Conditions,Clouds,dailyrainin,SoftwareType,DateUTC
2013-02-14 00:00:00,43.0,32.9,29.83,NW,315,0.2,1.1,67,0.00,,,0.00,WUHU216HW,2013-02-14 06:00:00,
2013-02-14 00:05:00,43.0,32.9,29.83,NW,315,1.1,1.1,67,0.00,,,0.00,WUHU216HW,2013-02-14 06:05:00,
2013-02-14 00:10:00,42.8,33.0,29.83,NNW,338,0.9,1.1,68,0.00,,,0.00,WUHU216HW,2013-02-14 06:10:00,
2013-02-14 00:15:00,42.8,33.0,29.83,North,0,0.0,0.9,68,0.00,,,0.00,WUHU216HW,2013-02-14 06:15:00,
2013-02-14 00:20:00,42.5,32.7,29.83,North,0,1.1,1.1,68,0.00,,,0.00,WUHU216HW,2013-02-14 06:20:00,
2013-02-14 00:25:00,42.1,32.3,29.84,NNW,338,0.0,1.1,68,0.00,,,0.00,WUHU216HW,2013-02-14 06:25:00,
2013-02-14 00:30:00,41.8,31.6,29.83,NNW,338,0.2,0.9,67,0.00,,,0.00,WUHU216HW,2013-02-14 06:30:00,
2013-02-14 00:35:00,41.4,31.7,29.83,North,0,0.0,0.4,68,0.00,,,0.00,WUHU216HW,2013-02-14 06:35:00,
2013-02-14 00:40:00,41.4,31.7,29.83,North,0,0.0,0.4,68,0.00,,,0.00,WUHU216HW,2013-02-14 06:40:00,
2013-02-14 00:45:00,41.2,31.5,29.83,WSW,248,0.2,0.4,68,0.00,,,0.00,WUHU216HW,2013-02-14 06:45:00,
2013-02-14 00:50:00,41.0,31.3,29.84,WSW,248,0.0,0.4,68,0.00,,,0.00,WUHU216HW,2013-02-14 06:50:00,
2013-02-14 00:55:00,40.9,31.5,29.83,WSW,248,0.0,0.2,69,0.00,,,0.00,WUHU216HW,2013-02-14 06:55:00,
2013-02-14 01:00:00,41.0,31.7,29.82,WSW,248,0.0,0.0,69,0.00,,,0.00,WUHU216HW,2013-02-14 07:00:00,
2013-02-14 01:05:00,41.0,32.0,29.83,WSW,248,0.0,0.0,70,0.00,,,0.00,WUHU216HW,2013-02-14 07:05:00,
2013-02-14 01:10:00,41.0,32.0,29.82,NW,315,0.4,0.9,70,0.00,,,0.00,WUHU216HW,2013-02-14 07:10:00,
2013-02-14 01:15:00,41.0,32.0,29.83,NNW,338,0.4,0.9,70,0.00,,,0.00,WUHU216HW,2013-02-14 07:15:00,
2013-02-14 01:20:00,41.0,32.0,29.83,North,0,0.0,1.6,70,0.00,,,0.00,WUHU216HW,2013-02-14 07:20:00,
2013-02-14 01:25:00,41.0,32.0,29.83,NNE,23,0.4,1.8,70,0.00,,,0.00,WUHU216HW,2013-02-14 07:25:00,
2013-02-14 01:30:00,40.9,31.9,29.83,NNE,23,0.4,1.8,70,0.00,,,0.00,WUHU216HW,2013-02-14 07:30:00,
2013-02-14 01:35:00,40.7,31.7,29.83,NNW,338,0.0,1.3,70,0.00,,,0.00,WUHU216HW,2013-02-14 07:35:00,
2013-02-14 01:40:00,40.5,31.5,29.83,NNW,338,0.0,0.2,70,0.00,,,0.00,WUHU216HW,2013-02-14 07:40:00,
2013-02-14 01:45:00,40.3,31.3,29.83,North,0,0.4,0.4,70,0.00,,,0.00,WUHU216HW,2013-02-14 07:45:00,
2013-02-14 01:50:00,40.1,31.5,29.83,West,270,0.0,0.4,71,0.00,,,0.00,WUHU216HW,2013-02-14 07:50:00,
2013-02-14 01:55:00,40.1,31.5,29.83,West,270,0.0,1.3,71,0.00,,,0.00,WUHU216HW,2013-02-14 07:55:00,
2013-02-14 02:00:00,40.0,31.3,29.82,West,270,0.0,1.3,71,0.00,,,0.00,WUHU216HW,2013-02-14 08:00:00,
2013-02-14 02:05:00,40.0,31.3,29.82,SW,225,0.2,1.1,71,0.00,,,0.00,WUHU216HW,2013-02-14 08:05:00,
2013-02-14 02:10:00,40.0,31.6,29.82,East,90,0.0,0.4,72,0.00,,,0.00,WUHU216HW,2013-02-14 08:10:00,
2013-02-14 02:15:00,40.0,31.6,29.82,SE,135,0.0,0.2,72,0.00,,,0.00,WUHU216HW,2013-02-14 08:15:00,
2013-02-14 02:20:00,40.0,31.6,29.82,North,0,0.2,0.2,72,0.00,,,0.00,WUHU216HW,2013-02-14 08:20:00,
2013-02-14 02:25:00,40.0,32.0,29.82,NNE,23,1.3,1.3,73,0.00,,,0.00,WUHU216HW,2013-02-14 08:25:00,
2013-02-14 02:30:00,40.0,32.3,29.82,NE,45,1.8,2.5,74,0.00,,,0.00,WUHU216HW,2013-02-14 08:30:00,
2013-02-14 02:35:00,40.0,32.0,29.82,NNE,23,1.3,2.5,73,0.00,,,0.00,WUHU216HW,2013-02-14 08:35:00,
2013-02-14 02:40:00,40.0,32.0,29.82,NNE,23,1.3,1.8,73,0.00,,,0.00,WUHU216HW,2013-02-14 08:40:00,
2013-02-14 02:45:00,40.0,32.3,29.82,NNE,23,1.1,2.7,74,0.00,,,0.00,WUHU216HW,2013-02-14 08:45:00,
2013-02-14 02:50:00,40.0,32.0,29.82,North,0,0.0,2.7,73,0.00,,,0.00,WUHU216HW,2013-02-14 08:50:00,
2013-02-14 02:55:00,40.0,32.0,29.82,SE,135,0.4,1.1,73,0.00,,,0.00,WUHU216HW,2013-02-14 08:55:00,
2013-02-14 03:00:00,39.6,31.6,29.82,SE,135,0.0,1.1,73,0.00,,,0.00,WUHU216HW,2013-02-14 09:00:00,
2013-02-14 03:05:00,39.6,31.6,29.82,SE,135,0.0,1.1,73,0.00,,,0.00,WUHU216HW,2013-02-14 09:05:00,
2013-02-14 03:10:00,39.4,31.8,29.83,NW,315,0.0,0.4,74,0.00,,,0.00,WUHU216HW,2013-02-14 09:10:00,
2013-02-14 03:15:00,39.6,32.3,29.83,NNE,23,1.1,1.1,75,0.00,,,0.00,WUHU216HW,2013-02-14 09:15:00,
2013-02-14 03:20:00,39.6,32.0,29.83,NE,45,0.0,1.1,74,0.00,,,0.00,WUHU216HW,2013-02-14 09:20:00,
2013-02-14 03:25:00,39.6,32.0,29.83,NNE,23,0.0,1.1,74,0.00,,,0.00,WUHU216HW,2013-02-14 09:25:00,
2013-02-14 03:30:00,39.6,32.0,29.83,East,90,0.2,1.1,74,0.00,,,0.00,WUHU216HW,2013-02-14 09:30:00,
2013-02-14 03:35:00,39.4,31.8,29.83,East,90,0.0,0.2,74,0.00,,,0.00,WUHU216HW,2013-02-14 09:35:00,
2013-02-14 03:40:00,39.2,31.6,29.83,East,90,0.0,0.0,74,0.00,,,0.00,WUHU216HW,2013-02-14 09:40:00,
2013-02-14 03:45:00,39.2,31.6,29.83,NE,45,0.0,0.0,74,0.00,,,0.00,WUHU216HW,2013-02-14 09:45:00,
2013-02-14 03:50:00,38.9,31.2,29.82,NE,45,0.0,0.0,74,0.00,,,0.00,WUHU216HW,2013-02-14 09:50:00,
2013-02-14 03:55:00,38.7,31.2,29.82,SE,135,0.4,1.1,74,0.00,,,0.00,WUHU216HW,2013-02-14 09:55:00,
2013-02-14 04:00:00,38.5,31.0,29.83,SE,135,0.0,1.1,74,0.00,,,0.00,WUHU216HW,2013-02-14 10:00:00,
2013-02-14 04:05:00,38.5,31.2,29.83,North,0,0.0,0.4,75,0.00,,,0.00,WUHU216HW,2013-02-14 10:05:00,
2013-02-14 04:10:00,38.2,31.2,29.82,North,0,0.0,0.4,76,0.00,,,0.00,WUHU216HW,2013-02-14 10:10:00,
2013-02-14 04:15:00,38.2,31.2,29.82,North,0,0.0,0.4,76,0.00,,,0.00,WUHU216HW,2013-02-14 10:15:00,
2013-02-14 04:20:00,37.8,30.9,29.82,SE,135,0.7,1.8,76,0.00,,,0.00,WUHU216HW,2013-02-14 10:20:00,
2013-02-14 04:25:00,37.8,31.2,29.82,SE,135,1.1,1.8,77,0.00,,,0.00,WUHU216HW,2013-02-14 10:25:00,
2013-02-14 04:30:00,37.8,31.2,29.82,SW,225,0.0,1.6,77,0.00,,,0.00,WUHU216HW,2013-02-14 10:30:00,
2013-02-14 04:35:00,37.8,31.2,29.82,West,270,0.4,0.4,77,0.00,,,0.00,WUHU216HW,2013-02-14 10:35:00,
2013-02-14 04:40:00,37.8,30.9,29.82,North,0,0.7,0.7,76,0.00,,,0.00,WUHU216HW,2013-02-14 10:40:00,
2013-02-14 04:45:00,37.6,30.8,29.83,North,0,0.7,1.1,76,0.00,,,0.00,WUHU216HW,2013-02-14 10:45:00,
2013-02-14 04:50:00,37.4,30.9,29.82,North,0,0.2,1.1,77,0.00,,,0.00,WUHU216HW,2013-02-14 10:50:00,
2013-02-14 04:55:00,37.4,30.9,29.83,WNW,293,0.0,1.1,77,0.00,,,0.00,WUHU216HW,2013-02-14 10:55:00,
2013-02-14 05:00:00,37.4,30.9,29.83,West,270,0.0,1.1,77,0.00,,,0.00,WUHU216HW,2013-02-14 11:00:00,
2013-02-14 05:05:00,37.4,30.9,29.83,WNW,293,0.0,0.7,77,0.00,,,0.00,WUHU216HW,2013-02-14 11:05:00,
2013-02-14 05:10:00,37.4,30.9,29.83,WNW,293,0.0,0.2,77,0.00,,,0.00,WUHU216HW,2013-02-14 11:10:00,
2013-02-14 05:15:00,37.3,30.4,29.83,WNW,293,0.0,0.0,76,0.00,,,0.00,WUHU216HW,2013-02-14 11:15:00,
2013-02-14 05:20:00,37.3,30.4,29.83,SSW,203,0.7,0.7,76,0.00,,,0.00,WUHU216HW,2013-02-14 11:20:00,
2013-02-14 05:25:00,37.3,30.4,29.83,WSW,248,0.4,0.9,76,0.00,,,0.00,WUHU216HW,2013-02-14 11:25:00,
2013-02-14 05:30:00,37.1,30.5,29.83,SSE,158,1.1,1.1,77,0.00,,,0.00,WUHU216HW,2013-02-14 11:30:00,
2013-02-14 05:35:00,37.1,30.5,29.83,SSW,203,0.4,1.1,77,0.00,,,0.00,WUHU216HW,2013-02-14 11:35:00,
2013-02-14 05:40:00,37.1,30.5,29.83,SSE,158,0.4,1.1,77,0.00,,,0.00,WUHU216HW,2013-02-14 11:40:00,
2013-02-14 05:45:00,37.1,30.5,29.83,SSW,203,0.7,1.1,77,0.00,,,0.00,WUHU216HW,2013-02-14 11:45:00,
2013-02-14 05:50:00,37.1,30.5,29.83,SSW,203,0.2,0.7,77,0.00,,,0.00,WUHU216HW,2013-02-14 11:50:00,
2013-02-14 05:55:00,37.1,30.5,29.83,SSE,158,0.9,0.9,77,0.00,,,0.00,WUHU216HW,2013-02-14 11:55:00,
2013-02-14 06:00:00,37.1,30.5,29.83,SE,135,0.7,0.9,77,0.00,,,0.00,WUHU216HW,2013-02-14 12:00:00,
2013-02-14 06:05:00,37.1,30.5,29.84,SSE,158,0.9,1.3,77,0.00,,,0.00,WUHU216HW,2013-02-14 12:05:00,
2013-02-14 06:10:00,37.1,30.9,29.84,SW,225,0.7,1.3,78,0.00,,,0.00,WUHU216HW,2013-02-14 12:10:00,
2013-02-14 06:15:00,37.1,30.9,29.84,WSW,248,0.0,1.1,78,0.00,,,0.00,WUHU216HW,2013-02-14 12:15:00,
2013-02-14 06:20:00,37.1,30.9,29.84,SW,225,0.4,0.9,78,0.00,,,0.00,WUHU216HW,2013-02-14 12:20:00,
2013-02-14 06:25:00,37.1,30.9,29.84,SSW,203,1.3,1.3,78,0.00,,,0.00,WUHU216HW,2013-02-14 12:25:00,
2013-02-14 06:30:00,37.1,30.9,29.84,SW,225,1.1,1.3,78,0.00,,,0.00,WUHU216HW,2013-02-14 12:30:00,
2013-02-14 06:35:00,37.1,30.9,29.84,SW,225,1.3,1.6,78,0.00,,,0.00,WUHU216HW,2013-02-14 12:35:00,
2013-02-14 06:40:00,37.1,30.9,29.84,WSW,248,0.9,1.6,78,0.00,,,0.00,WUHU216HW,2013-02-14 12:40:00,
2013-02-14 06:45:00,37.1,30.9,29.84,SW,225,1.1,1.6,78,0.00,,,0.00,WUHU216HW,2013-02-14 12:45:00,
2013-02-14 06:50:00,36.9,30.7,29.84,SW,225,1.6,1.6,78,0.00,,,0.00,WUHU216HW,2013-02-14 12:50:00,
2013-02-14 06:55:00,36.9,31.0,29.84,SW,225,1.6,1.6,79,0.00,,,0.00,WUHU216HW,2013-02-14 12:55:00,
2013-02-14 07:00:00,37.1,31.1,29.84,SSW,203,1.3,1.6,79,0.00,,,0.00,WUHU216HW,2013-02-14 13:00:00,
2013-02-14 07:05:00,37.1,31.1,29.84,SSE,158,0.9,1.8,79,0.00,,,0.00,WUHU216HW,2013-02-14 13:05:00,
2013-02-14 07:10:00,37.1,31.1,29.84,South,180,1.6,1.8,79,0.00,,,0.00,WUHU216HW,2013-02-14 13:10:00,
2013-02-14 07:15:00,37.3,31.3,29.84,SSW,203,1.3,1.8,79,0.00,,,0.00,WUHU216HW,2013-02-14 13:15:00,
2013-02-14 07:20:00,37.1,31.1,29.84,SE,135,0.7,1.8,79,0.00,,,0.00,WUHU216HW,2013-02-14 13:20:00,
2013-02-14 07:25:00,37.1,31.1,29.84,SSW,203,0.4,1.1,79,0.00,,,0.00,WUHU216HW,2013-02-14 13:25:00,
2013-02-14 07:30:00,37.3,31.7,29.84,WSW,248,1.1,1.1,80,0.00,,,0.00,WUHU216HW,2013-02-14 13:30:00,
2013-02-14 07:35:00,37.4,31.9,29.84,WSW,248,1.1,1.6,80,0.00,,,0.00,WUHU216HW,2013-02-14 13:35:00,
2013-02-14 07:40:00,37.4,31.9,29.84,SSW,203,0.4,1.6,80,0.00,,,0.00,WUHU216HW,2013-02-14 13:40:00,
2013-02-14 07:45:00,37.6,32.0,29.84,South,180,0.4,1.6,80,0.00,,,0.00,WUHU216HW,2013-02-14 13:45:00,
2013-02-14 07:50:00,37.8,32.2,29.85,SE,135,0.7,1.1,80,0.00,,,0.00,WUHU216HW,2013-02-14 13:50:00,
2013-02-14 07:55:00,37.8,32.2,29.85,SSE,158,0.2,1.1,80,0.00,,,0.00,WUHU216HW,2013-02-14 13:55:00,
2013-02-14 08:00:00,38.2,32.6,29.85,SSW,203,0.0,0.4,80,0.00,,,0.00,WUHU216HW,2013-02-14 14:00:00,
2013-02-14 08:05:00,38.5,32.9,29.85,South,180,0.9,0.9,80,0.00,,,0.00,WUHU216HW,2013-02-14 14:05:00,
2013-02-14 08:10:00,39.2,33.7,29.85,SSW,203,0.7,1.1,80,0.00,,,0.00,WUHU216HW,2013-02-14 14:10:00,
2013-02-14 08:15:00,40.0,34.3,29.85,WSW,248,0.7,1.3,80,0.00,,,0.00,WUHU216HW,2013-02-14 14:15:00,
2013-02-14 08:20:00,40.5,35.1,29.85,WSW,248,1.1,1.3,81,0.00,,,0.00,WUHU216HW,2013-02-14 14:20:00,
2013-02-14 08:25:00,41.0,35.6,29.86,West,270,1.1,1.1,81,0.00,,,0.00,WUHU216HW,2013-02-14 14:25:00,
2013-02-14 08:30:00,41.4,35.6,29.85,WSW,248,0.0,1.8,80,0.00,,,0.00,WUHU216HW,2013-02-14 14:30:00,
2013-02-14 08:35:00,41.9,36.2,29.86,WSW,248,2.0,2.7,80,0.00,,,0.00,WUHU216HW,2013-02-14 14:35:00,
2013-02-14 08:40:00,42.8,37.1,29.86,WSW,248,1.8,2.7,80,0.00,,,0.00,WUHU216HW,2013-02-14 14:40:00,
2013-02-14 08:45:00,43.6,37.4,29.86,SSW,203,0.7,1.8,79,0.00,,,0.00,WUHU216HW,2013-02-14 14:45:00,
2013-02-14 08:50:00,44.3,37.8,29.86,SSW,203,0.9,1.1,78,0.00,,,0.00,WUHU216HW,2013-02-14 14:50:00,
2013-02-14 08:55:00,45.0,38.3,29.86,SSW,203,0.4,0.9,77,0.00,,,0.00,WUHU216HW,2013-02-14 14:55:00,
2013-02-14 09:00:00,45.7,39.0,29.86,SSE,158,1.1,1.8,77,0.00,,,0.00,WUHU216HW,2013-02-14 15:00:00,
2013-02-14 09:05:00,46.4,39.7,29.86,WSW,248,1.6,2.7,77,0.00,,,0.00,WUHU216HW,2013-02-14 15:05:00,
2013-02-14 09:10:00,47.3,40.2,29.86,SW,225,2.7,3.4,76,0.00,,,0.00,WUHU216HW,2013-02-14 15:10:00,
2013-02-14 09:15:00,48.4,40.8,29.86,SW,225,0.9,3.4,75,0.00,,,0.00,WUHU216HW,2013-02-14 15:15:00,
2013-02-14 09:20:00,49.0,41.0,29.86,West,270,0.7,2.0,74,0.00,,,0.00,WUHU216HW,2013-02-14 15:20:00,
2013-02-14 09:25:00,49.5,40.9,29.86,SE,135,0.4,2.0,72,0.00,,,0.00,WUHU216HW,2013-02-14 15:25:00,
2013-02-14 09:30:00,50.0,41.4,29.86,SW,225,1.1,1.8,72,0.00,,,0.00,WUHU216HW,2013-02-14 15:30:00,
2013-02-14 09:35:00,50.8,41.8,29.86,WNW,293,1.1,2.9,71,0.00,,,0.00,WUHU216HW,2013-02-14 15:35:00,
2013-02-14 09:40:00,51.5,42.1,29.86,West,270,0.2,2.9,70,0.00,,,0.00,WUHU216HW,2013-02-14 15:40:00,
2013-02-14 09:45:00,52.4,42.9,29.86,SE,135,0.7,2.7,70,0.00,,,0.00,WUHU216HW,2013-02-14 15:45:00,
2013-02-14 09:50:00,53.1,43.2,29.86,North,0,0.4,1.8,69,0.00,,,0.00,WUHU216HW,2013-02-14 15:50:00,
2013-02-14 09:55:00,53.5,42.4,29.86,NNW,338,0.9,2.0,66,0.00,,,0.00,WUHU216HW,2013-02-14 15:55:00,
2013-02-14 10:00:00,53.5,42.8,29.85,NNW,338,0.4,2.0,67,0.00,,,0.00,WUHU216HW,2013-02-14 16:00:00,
2013-02-14 10:05:00,53.6,42.5,29.86,West,270,0.4,1.1,66,0.00,,,0.00,WUHU216HW,2013-02-14 16:05:00,
2013-02-14 10:10:00,54.4,42.9,29.86,NNW,338,0.7,1.8,65,0.00,,,0.00,WUHU216HW,2013-02-14 16:10:00,
2013-02-14 10:15:00,55.1,43.1,29.86,NNW,338,1.8,1.8,64,0.00,,,0.00,WUHU216HW,2013-02-14 16:15:00,
2013-02-14 10:20:00,55.4,42.6,29.86,NE,45,1.3,2.2,62,0.00,,,0.00,WUHU216HW,2013-02-14 16:20:00,
2013-02-14 10:25:00,56.0,43.1,29.86,North,0,2.5,2.7,62,0.00,,,0.00,WUHU216HW,2013-02-14 16:25:00,
2013-02-14 10:30:00,56.5,43.7,29.86,NW,315,1.1,2.7,62,0.00,,,0.00,WUHU216HW,2013-02-14 16:30:00,
2013-02-14 10:35:00,56.9,43.6,29.86,North,0,1.8,1.8,61,0.00,,,0.00,WUHU216HW,2013-02-14 16:35:00,
2013-02-14 10:40:00,57.4,42.8,29.86,NNW,338,2.7,2.7,58,0.00,,,0.00,WUHU216HW,2013-02-14 16:40:00,
2013-02-14 10:45:00,58.0,43.7,29.86,NW,315,0.7,2.7,59,0.00,,,0.00,WUHU216HW,2013-02-14 16:45:00,
2013-02-14 10:50:00,58.7,43.9,29.86,West,270,0.7,2.5,58,0.00,,,0.00,WUHU216HW,2013-02-14 16:50:00,
2013-02-14 10:55:00,59.4,44.7,29.85,WNW,293,0.4,1.8,58,0.00,,,0.00,WUHU216HW,2013-02-14 16:55:00,
2013-02-14 11:00:00,60.1,44.8,29.85,North,0,0.0,1.8,57,0.00,,,0.00,WUHU216HW,2013-02-14 17:00:00,
2013-02-14 11:05:00,60.8,46.0,29.85,SSW,203,0.9,2.5,58,0.00,,,0.00,WUHU216HW,2013-02-14 17:05:00,
2013-02-14 11:10:00,62.1,45.7,29.85,SSW,203,2.7,2.7,55,0.00,,,0.00,WUHU216HW,2013-02-14 17:10:00,
2013-02-14 11:15:00,63.2,46.2,29.84,SSW,203,3.4,3.4,54,0.00,,,0.00,WUHU216HW,2013-02-14 17:15:00,
2013-02-14 11:20:00,64.4,46.4,29.84,South,180,4.7,4.7,52,0.00,,,0.00,WUHU216HW,2013-02-14 17:20:00,
2013-02-14 11:25:00,65.3,46.3,29.84,South,180,4.3,6.3,50,0.00,,,0.00,WUHU216HW,2013-02-14 17:25:00,
2013-02-14 11:30:00,65.9,44.5,29.84,WSW,248,3.8,6.3,46,0.00,,,0.00,WUHU216HW,2013-02-14 17:30:00,
2013-02-14 11:35:00,66.4,44.4,29.84,SW,225,3.1,6.3,45,0.00,,,0.00,WUHU216HW,2013-02-14 17:35:00,
2013-02-14 11:40:00,67.0,43.7,29.84,WSW,248,4.3,6.3,43,0.00,,,0.00,WUHU216HW,2013-02-14 17:40:00,
2013-02-14 11:45:00,67.3,44.0,29.83,West,270,3.6,6.7,43,0.00,,,0.00,WUHU216HW,2013-02-14 17:45:00,
2013-02-14 11:50:00,67.0,41.9,29.83,West,270,2.7,6.7,40,0.00,,,0.00,WUHU216HW,2013-02-14 17:50:00,
2013-02-14 11:55:00,67.1,42.0,29.83,West,270,6.3,7.2,40,0.00,,,0.00,WUHU216HW,2013-02-14 17:55:00,
2013-02-14 12:00:00,67.7,42.5,29.83,WSW,248,6.9,8.5,40,0.00,,,0.00,WUHU216HW,2013-02-14 18:00:00,
2013-02-14 12:05:00,68.0,42.1,29.82,WNW,293,5.4,8.5,39,0.00,,,0.00,WUHU216HW,2013-02-14 18:05:00,
2013-02-14 12:10:00,68.0,42.8,29.83,SSW,203,6.3,8.5,40,0.00,,,0.00,WUHU216HW,2013-02-14 18:10:00,
2013-02-14 12:15:00,68.8,42.8,29.82,SW,225,4.0,8.7,39,0.00,,,0.00,WUHU216HW,2013-02-14 18:15:00,
2013-02-14 12:20:00,69.3,43.2,29.82,SSW,203,5.6,8.7,39,0.00,,,0.00,WUHU216HW,2013-02-14 18:20:00,
2013-02-14 12:25:00,70.0,42.4,29.82,South,180,4.0,8.5,37,0.00,,,0.00,WUHU216HW,2013-02-14 18:25:00,
2013-02-14 12:30:00,70.4,41.2,29.81,SSW,203,4.3,8.1,35,0.00,,,0.00,WUHU216HW,2013-02-14 18:30:00,
2013-02-14 12:35:00,70.9,41.1,29.81,SSW,203,4.9,6.7,34,0.00,,,0.00,WUHU216HW,2013-02-14 18:35:00,
2013-02-14 12:40:00,71.1,42.0,29.81,SW,225,8.5,9.2,35,0.00,,,0.00,WUHU216HW,2013-02-14 18:40:00,
2013-02-14 12:45:00,71.3,42.0,29.81,SSW,203,2.5,9.2,35,0.00,,,0.00,WUHU216HW,2013-02-14 18:45:00,
2013-02-14 12:50:00,71.6,41.7,29.81,South,180,4.3,7.6,34,0.00,,,0.00,WUHU216HW,2013-02-14 18:50:00,
2013-02-14 12:55:00,71.8,42.6,29.80,WSW,248,4.7,7.6,35,0.00,,,0.00,WUHU216HW,2013-02-14 18:55:00,
2013-02-14 13:00:00,72.0,41.9,29.80,SW,225,7.4,7.6,34,0.00,,,0.00,WUHU216HW,2013-02-14 19:00:00,
2013-02-14 13:05:00,72.2,41.4,29.80,WSW,248,1.8,7.6,33,0.00,,,0.00,WUHU216HW,2013-02-14 19:05:00,
2013-02-14 13:10:00,72.4,41.5,29.79,SSW,203,5.4,6.3,33,0.00,,,0.00,WUHU216HW,2013-02-14 19:10:00,
2013-02-14 13:15:00,72.4,41.5,29.79,WNW,293,3.6,6.9,33,0.00,,,0.00,WUHU216HW,2013-02-14 19:15:00,
2013-02-14 13:20:00,72.4,40.8,29.79,WSW,248,2.7,7.6,32,0.00,,,0.00,WUHU216HW,2013-02-14 19:20:00,
2013-02-14 13:25:00,72.5,41.7,29.78,South,180,4.3,7.6,33,0.00,,,0.00,WUHU216HW,2013-02-14 19:25:00,
2013-02-14 13:30:00,72.9,41.2,29.79,WSW,248,8.5,8.5,32,0.00,,,0.00,WUHU216HW,2013-02-14 19:30:00,
2013-02-14 13:35:00,72.9,41.2,29.78,WNW,293,3.4,8.5,32,0.00,,,0.00,WUHU216HW,2013-02-14 19:35:00,
2013-02-14 13:40:00,72.7,40.3,29.78,SSW,203,3.8,6.5,31,0.00,,,0.00,WUHU216HW,2013-02-14 19:40:00,
2013-02-14 13:45:00,72.7,40.3,29.77,SSW,203,5.6,6.7,31,0.00,,,0.00,WUHU216HW,2013-02-14 19:45:00,
2013-02-14 13:50:00,72.9,41.2,29.77,SW,225,5.4,6.7,32,0.00,,,0.00,WUHU216HW,2013-02-14 19:50:00,
2013-02-14 13:55:00,73.1,40.6,29.76,SE,135,5.6,6.3,31,0.00,,,0.00,WUHU216HW,2013-02-14 19:55:00,
2013-02-14 14:00:00,73.1,38.9,29.76,South,180,9.4,10.3,29,0.00,,,0.00,WUHU216HW,2013-02-14 20:00:00,
2013-02-14 14:05:00,72.9,38.7,29.76,SSW,203,6.3,11.2,29,0.00,,,0.00,WUHU216HW,2013-02-14 20:05:00,
2013-02-14 14:10:00,72.7,37.5,29.76,SSW,203,8.5,11.2,28,0.00,,,0.00,WUHU216HW,2013-02-14 20:10:00,
2013-02-14 14:15:00,72.7,38.5,29.75,SE,135,4.5,8.5,29,0.00,,,0.00,WUHU216HW,2013-02-14 20:15:00,
2013-02-14 14:20:00,72.7,39.6,29.75,SW,225,6.5,7.4,30,0.00,,,0.00,WUHU216HW,2013-02-14 20:20:00,
2013-02-14 14:25:00,72.9,38.7,29.75,SSW,203,3.4,7.4,29,0.00,,,0.00,WUHU216HW,2013-02-14 20:25:00,
2013-02-14 14:30:00,72.9,39.7,29.74,SW,225,5.6,8.1,30,0.00,,,0.00,WUHU216HW,2013-02-14 20:30:00,
2013-02-14 14:35:00,73.1,40.6,29.74,SSW,203,3.1,8.1,31,0.00,,,0.00,WUHU216HW,2013-02-14 20:35:00,
2013-02-14 14:40:00,73.1,38.9,29.74,SSW,203,7.6,15.0,29,0.00,,,0.00,WUHU216HW,2013-02-14 20:40:00,
2013-02-14 14:45:00,72.7,38.5,29.74,SSE,158,6.7,15.0,29,0.00,,,0.00,WUHU216HW,2013-02-14 20:45:00,
2013-02-14 14:50:00,72.2,38.1,29.74,SSE,158,4.7,9.6,29,0.00,,,0.00,WUHU216HW,2013-02-14 20:50:00,
2013-02-14 14:55:00,72.2,39.2,29.73,SSW,203,7.6,10.5,30,0.00,,,0.00,WUHU216HW,2013-02-14 20:55:00,
2013-02-14 15:00:00,72.2,38.1,29.73,South,180,6.9,10.5,29,0.00,,,0.00,WUHU216HW,2013-02-14 21:00:00,
2013-02-14 15:05:00,72.0,38.0,29.73,SSW,203,2.9,9.2,29,0.00,,,0.00,WUHU216HW,2013-02-14 21:05:00,
2013-02-14 15:10:00,72.0,39.0,29.73,WSW,248,6.3,9.2,30,0.00,,,0.00,WUHU216HW,2013-02-14 21:10:00,
2013-02-14 15:15:00,72.0,38.0,29.73,SW,225,3.8,6.3,29,0.00,,,0.00,WUHU216HW,2013-02-14 21:15:00,
2013-02-14 15:20:00,72.2,39.2,29.73,SW,225,4.3,7.8,30,0.00,,,0.00,WUHU216HW,2013-02-14 21:20:00,
2013-02-14 15:25:00,72.2,39.2,29.73,WSW,248,3.4,7.8,30,0.00,,,0.00,WUHU216HW,2013-02-14 21:25:00,
2013-02-14 15:30:00,72.4,40.1,29.73,WSW,248,4.7,7.4,31,0.00,,,0.00,WUHU216HW,2013-02-14 21:30:00,
2013-02-14 15:35:00,72.4,39.2,29.73,West,270,4.7,7.4,30,0.00,,,0.00,WUHU216HW,2013-02-14 21:35:00,
2013-02-14 15:40:00,71.8,38.9,29.73,SSW,203,4.0,7.2,30,0.00,,,0.00,WUHU216HW,2013-02-14 21:40:00,
2013-02-14 15:45:00,71.8,37.8,29.73,SSE,158,8.7,9.2,29,0.00,,,0.00,WUHU216HW,2013-02-14 21:45:00,
2013-02-14 15:50:00,71.6,38.7,29.73,SSW,203,4.5,9.2,30,0.00,,,0.00,WUHU216HW,2013-02-14 21:50:00,
2013-02-14 15:55:00,71.6,37.7,29.73,SE,135,7.4,7.6,29,0.00,,,0.00,WUHU216HW,2013-02-14 21:55:00,
2013-02-14 16:00:00,71.3,38.3,29.73,South,180,4.3,7.6,30,0.00,,,0.00,WUHU216HW,2013-02-14 22:00:00,
2013-02-14 16:05:00,71.3,37.4,29.73,South,180,9.6,9.6,29,0.00,,,0.00,WUHU216HW,2013-02-14 22:05:00,
2013-02-14 16:10:00,71.1,37.2,29.73,SW,225,8.5,9.6,29,0.00,,,0.00,WUHU216HW,2013-02-14 22:10:00,
2013-02-14 16:15:00,71.3,38.3,29.73,WNW,293,2.5,8.5,30,0.00,,,0.00,WUHU216HW,2013-02-14 22:15:00,
2013-02-14 16:20:00,71.3,38.3,29.73,SW,225,2.0,5.4,30,0.00,,,0.00,WUHU216HW,2013-02-14 22:20:00,
2013-02-14 16:25:00,71.3,38.3,29.73,WSW,248,1.6,5.4,30,0.00,,,0.00,WUHU216HW,2013-02-14 22:25:00,
2013-02-14 16:30:00,71.3,38.3,29.73,WSW,248,8.5,8.9,30,0.00,,,0.00,WUHU216HW,2013-02-14 22:30:00,
2013-02-14 16:35:00,71.1,38.3,29.72,South,180,7.6,9.8,30,0.00,,,0.00,WUHU216HW,2013-02-14 22:35:00,
2013-02-14 16:40:00,70.9,38.1,29.73,SSW,203,7.6,9.8,30,0.00,,,0.00,WUHU216HW,2013-02-14 22:40:00,
2013-02-14 16:45:00,70.9,38.1,29.73,SW,225,4.0,8.1,30,0.00,,,0.00,WUHU216HW,2013-02-14 22:45:00,
2013-02-14 16:50:00,70.7,38.6,29.72,WSW,248,2.5,8.1,31,0.00,,,0.00,WUHU216HW,2013-02-14 22:50:00,
2013-02-14 16:55:00,70.7,38.6,29.72,South,180,6.7,6.7,31,0.00,,,0.00,WUHU216HW,2013-02-14 22:55:00,
2013-02-14 17:00:00,70.6,38.4,29.73,SSW,203,5.6,6.9,31,0.00,,,0.00,WUHU216HW,2013-02-14 23:00:00,
2013-02-14 17:05:00,70.4,38.4,29.72,SW,225,3.8,7.2,31,0.00,,,0.00,WUHU216HW,2013-02-14 23:05:00,
2013-02-14 17:10:00,70.2,38.2,29.73,SSW,203,7.4,8.5,31,0.00,,,0.00,WUHU216HW,2013-02-14 23:10:00,
2013-02-14 17:15:00,69.8,37.8,29.73,South,180,3.8,8.5,31,0.00,,,0.00,WUHU216HW,2013-02-14 23:15:00,
2013-02-14 17:20:00,69.7,37.6,29.73,SSW,203,4.0,7.6,31,0.00,,,0.00,WUHU216HW,2013-02-14 23:20:00,
2013-02-14 17:25:00,69.5,37.5,29.73,SSW,203,6.0,8.1,31,0.00,,,0.00,WUHU216HW,2013-02-14 23:25:00,
2013-02-14 17:30:00,69.1,37.2,29.73,SSW,203,5.1,8.1,31,0.00,,,0.00,WUHU216HW,2013-02-14 23:30:00,
2013-02-14 17:35:00,68.9,37.7,29.73,SW,225,6.7,7.8,32,0.00,,,0.00,WUHU216HW,2013-02-14 23:35:00,
2013-02-14 17:40:00,68.8,37.6,29.73,SSW,203,6.0,6.9,32,0.00,,,0.00,WUHU216HW,2013-02-14 23:40:00,
2013-02-14 17:45:00,68.4,38.0,29.73,South,180,6.5,6.5,33,0.00,,,0.00,WUHU216HW,2013-02-14 23:45:00,
2013-02-14 17:50:00,68.2,37.8,29.73,South,180,4.5,6.5,33,0.00,,,0.00,WUHU216HW,2013-02-14 23:50:00,
2013-02-14 17:55:00,67.9,37.5,29.73,SSE,158,4.7,7.4,33,0.00,,,0.00,WUHU216HW,2013-02-14 23:55:00,
2013-02-14 18:00:00,67.5,38.0,29.73,South,180,4.7,7.4,34,0.00,,,0.00,WUHU216HW,2013-02-15 00:00:00,
2013-02-14 18:05:00,67.0,37.5,29.73,SSE,158,2.2,6.5,34,0.00,,,0.00,WUHU216HW,2013-02-15 00:05:00,
2013-02-14 18:10:00,66.6,37.2,29.73,SSE,158,4.3,5.8,34,0.00,,,0.00,WUHU216HW,2013-02-15 00:10:00,
2013-02-14 18:15:00,66.1,37.4,29.73,SSW,203,4.3,5.8,35,0.00,,,0.00,WUHU216HW,2013-02-15 00:15:00,
2013-02-14 18:20:00,65.5,36.3,29.73,SSE,158,4.7,5.8,34,0.00,,,0.00,WUHU216HW,2013-02-15 00:20:00,
2013-02-14 18:25:00,65.0,36.5,29.73,SSE,158,6.9,6.9,35,0.00,,,0.00,WUHU216HW,2013-02-15 00:25:00,
2013-02-14 18:30:00,64.4,36.7,29.73,South,180,5.4,6.9,36,0.00,,,0.00,WUHU216HW,2013-02-15 00:30:00,
2013-02-14 18:35:00,64.1,36.4,29.74,SSE,158,6.0,6.0,36,0.00,,,0.00,WUHU216HW,2013-02-15 00:35:00,
2013-02-14 18:40:00,63.7,36.8,29.73,South,180,5.6,8.3,37,0.00,,,0.00,WUHU216HW,2013-02-15 00:40:00,
2013-02-14 18:45:00,63.4,36.5,29.74,SSW,203,5.4,8.3,37,0.00,,,0.00,WUHU216HW,2013-02-15 00:45:00,
2013-02-14 18:50:00,63.0,36.9,29.74,South,180,5.4,8.3,38,0.00,,,0.00,WUHU216HW,2013-02-15 00:50:00,
2013-02-14 18:55:00,62.6,37.3,29.74,South,180,6.0,8.1,39,0.00,,,0.00,WUHU216HW,2013-02-15 00:55:00,
2013-02-14 19:00:00,62.5,37.1,29.74,South,180,5.8,8.7,39,0.00,,,0.00,WUHU216HW,2013-02-15 01:00:00,
2013-02-14 19:05:00,62.3,37.6,29.74,South,180,5.8,8.7,40,0.00,,,0.00,WUHU216HW,2013-02-15 01:05:00,
2013-02-14 19:10:00,62.1,37.5,29.75,SSW,203,9.6,10.5,40,0.00,,,0.00,WUHU216HW,2013-02-15 01:10:00,
2013-02-14 19:15:00,61.9,37.4,29.75,South,180,5.8,10.5,40,0.00,,,0.00,WUHU216HW,2013-02-15 01:15:00,
2013-02-14 19:20:00,61.7,37.2,29.74,South,180,10.3,10.3,40,0.00,,,0.00,WUHU216HW,2013-02-15 01:20:00,
2013-02-14 19:25:00,61.6,37.0,29.75,SSW,203,8.3,10.3,40,0.00,,,0.00,WUHU216HW,2013-02-15 01:25:00,
2013-02-14 19:30:00,61.6,37.6,29.75,SSW,203,6.9,9.6,41,0.00,,,0.00,WUHU216HW,2013-02-15 01:30:00,
2013-02-14 19:35:00,61.4,37.5,29.74,SSW,203,8.9,9.4,41,0.00,,,0.00,WUHU216HW,2013-02-15 01:35:00,
2013-02-14 19:40:00,61.2,37.3,29.74,South,180,7.6,8.9,41,0.00,,,0.00,WUHU216HW,2013-02-15 01:40:00,
2013-02-14 19:45:00,61.2,37.3,29.74,South,180,6.9,10.5,41,0.00,,,0.00,WUHU216HW,2013-02-15 01:45:00,
2013-02-14 19:50:00,61.0,37.1,29.74,South,180,8.5,10.5,41,0.00,,,0.00,WUHU216HW,2013-02-15 01:50:00,
2013-02-14 19:55:00,60.8,37.5,29.74,SSE,158,8.1,11.4,42,0.00,,,0.00,WUHU216HW,2013-02-15 01:55:00,
2013-02-14 20:00:00,60.8,37.5,29.74,SW,225,9.4,11.4,42,0.00,,,0.00,WUHU216HW,2013-02-15 02:00:00,
2013-02-14 20:05:00,60.7,37.9,29.74,South,180,8.7,9.8,43,0.00,,,0.00,WUHU216HW,2013-02-15 02:05:00,
2013-02-14 20:10:00,60.5,37.8,29.74,SSW,203,7.6,11.2,43,0.00,,,0.00,WUHU216HW,2013-02-15 02:10:00,
2013-02-14 20:15:00,60.5,37.8,29.74,SSW,203,10.5,11.2,43,0.00,,,0.00,WUHU216HW,2013-02-15 02:15:00,
2013-02-14 20:20:00,60.3,37.6,29.74,South,180,10.3,12.8,43,0.00,,,0.00,WUHU216HW,2013-02-15 02:20:00,
2013-02-14 20:25:00,60.3,37.6,29.74,SSE,158,5.6,12.8,43,0.00,,,0.00,WUHU216HW,2013-02-15 02:25:00,
2013-02-14 20:30:00,60.1,37.4,29.75,South,180,9.6,10.5,43,0.00,,,0.00,WUHU216HW,2013-02-15 02:30:00,
2013-02-14 20:35:00,59.9,37.9,29.74,South,180,9.4,10.5,44,0.00,,,0.00,WUHU216HW,2013-02-15 02:35:00,
2013-02-14 20:40:00,59.9,37.9,29.75,South,180,8.5,10.7,44,0.00,,,0.00,WUHU216HW,2013-02-15 02:40:00,
2013-02-14 20:45:00,59.8,37.7,29.75,SSW,203,10.7,10.7,44,0.00,,,0.00,WUHU216HW,2013-02-15 02:45:00,
2013-02-14 20:50:00,59.6,37.5,29.75,SE,135,9.8,10.7,44,0.00,,,0.00,WUHU216HW,2013-02-15 02:50:00,
2013-02-14 20:55:00,59.4,38.0,29.75,SSW,203,9.8,11.4,45,0.00,,,0.00,WUHU216HW,2013-02-15 02:55:00,
2013-02-14 21:00:00,59.2,37.8,29.75,South,180,11.4,12.8,45,0.00,,,0.00,WUHU216HW,2013-02-15 03:00:00,
2013-02-14 21:05:00,59.0,37.6,29.75,SW,225,9.8,12.8,45,0.00,,,0.00,WUHU216HW,2013-02-15 03:05:00,
2013-02-14 21:10:00,58.9,37.4,29.75,SSW,203,8.1,12.1,45,0.00,,,0.00,WUHU216HW,2013-02-15 03:10:00,
2013-02-14 21:15:00,58.9,38.1,29.75,SSW,203,10.5,12.1,46,0.00,,,0.00,WUHU216HW,2013-02-15 03:15:00,
2013-02-14 21:20:00,58.7,37.9,29.75,South,180,11.9,11.9,46,0.00,,,0.00,WUHU216HW,2013-02-15 03:20:00,
2013-02-14 21:25:00,58.5,37.7,29.75,South,180,14.5,14.5,46,0.00,,,0.00,WUHU216HW,2013-02-15 03:25:00,
2013-02-14 21:30:00,58.3,37.5,29.75,South,180,9.4,14.5,46,0.00,,,0.00,WUHU216HW,2013-02-15 03:30:00,
2013-02-14 21:35:00,58.3,38.2,29.75,SSW,203,9.8,11.9,47,0.00,,,0.00,WUHU216HW,2013-02-15 03:35:00,
2013-02-14 21:40:00,58.3,38.2,29.76,South,180,12.1,13.0,47,0.00,,,0.00,WUHU216HW,2013-02-15 03:40:00,
2013-02-14 21:45:00,58.1,38.0,29.76,South,180,11.4,13.0,47,0.00,,,0.00,WUHU216HW,2013-02-15 03:45:00,
2013-02-14 21:50:00,58.1,38.0,29.76,SSW,203,9.6,12.8,47,0.00,,,0.00,WUHU216HW,2013-02-15 03:50:00,
2013-02-14 21:55:00,58.1,38.0,29.76,South,180,8.5,13.9,47,0.00,,,0.00,WUHU216HW,2013-02-15 03:55:00,
2013-02-14 22:00:00,58.0,37.8,29.77,South,180,7.6,13.9,47,0.00,,,0.00,WUHU216HW,2013-02-15 04:00:00,
2013-02-14 22:05:00,58.0,37.8,29.76,SSW,203,10.1,12.1,47,0.00,,,0.00,WUHU216HW,2013-02-15 04:05:00,
2013-02-14 22:10:00,57.8,38.3,29.76,SSE,158,9.2,12.3,48,0.00,,,0.00,WUHU216HW,2013-02-15 04:10:00,
2013-02-14 22:15:00,57.6,38.1,29.77,South,180,9.4,12.3,48,0.00,,,0.00,WUHU216HW,2013-02-15 04:15:00,
2013-02-14 22:20:00,57.6,38.1,29.77,South,180,10.1,10.5,48,0.00,,,0.00,WUHU216HW,2013-02-15 04:20:00,
2013-02-14 22:25:00,57.2,37.7,29.77,South,180,7.6,10.5,48,0.00,,,0.00,WUHU216HW,2013-02-15 04:25:00,
2013-02-14 22:30:00,57.2,38.4,29.77,SE,135,9.2,9.2,49,0.00,,,0.00,WUHU216HW,2013-02-15 04:30:00,
2013-02-14 22:35:00,56.9,38.0,29.78,SSE,158,9.2,9.2,49,0.00,,,0.00,WUHU216HW,2013-02-15 04:35:00,
2013-02-14 22:40:00,56.5,38.2,29.78,South,180,9.2,9.2,50,0.00,,,0.00,WUHU216HW,2013-02-15 04:40:00,
2013-02-14 22:45:00,56.3,38.0,29.78,SSE,158,6.5,10.5,50,0.00,,,0.00,WUHU216HW,2013-02-15 04:45:00,
2013-02-14 22:50:00,56.2,37.8,29.78,South,180,6.9,10.5,50,0.00,,,0.00,WUHU216HW,2013-02-15 04:50:00,
2013-02-14 22:55:00,56.0,37.6,29.78,SSW,203,9.8,10.5,50,0.00,,,0.00,WUHU216HW,2013-02-15 04:55:00,
2013-02-14 23:00:00,55.8,37.4,29.78,SW,225,12.3,13.4,50,0.00,,,0.00,WUHU216HW,2013-02-15 05:00:00,
2013-02-14 23:05:00,55.6,37.3,29.78,SSW,203,13.4,14.5,50,0.00,,,0.00,WUHU216HW,2013-02-15 05:05:00,
2013-02-14 23:10:00,55.4,37.1,29.78,SSE,158,13.2,15.0,50,0.00,,,0.00,WUHU216HW,2013-02-15 05:10:00,
2013-02-14 23:15:00,55.3,36.9,29.78,South,180,9.8,16.1,50,0.00,,,0.00,WUHU216HW,2013-02-15 05:15:00,
2013-02-14 23:20:00,55.1,36.7,29.79,South,180,14.1,16.1,50,0.00,,,0.00,WUHU216HW,2013-02-15 05:20:00,
2013-02-14 23:25:00,54.9,36.6,29.79,South,180,10.3,14.1,50,0.00,,,0.00,WUHU216HW,2013-02-15 05:25:00,
2013-02-14 23:30:00,54.7,36.5,29.79,South,180,9.8,13.4,50,0.00,,,0.00,WUHU216HW,2013-02-15 05:30:00,
2013-02-14 23:35:00,54.5,36.7,29.79,SSW,203,9.8,12.5,51,0.00,,,0.00,WUHU216HW,2013-02-15 05:35:00,
2013-02-14 23:40:00,54.4,36.5,29.79,South,180,10.5,12.1,51,0.00,,,0.00,WUHU216HW,2013-02-15 05:40:00,
2013-02-14 23:45:00,54.2,36.5,29.79,South,180,8.7,12.1,51,0.00,,,0.00,WUHU216HW,2013-02-15 05:45:00,
2013-02-14 23:50:00,54.0,36.3,29.79,SW,225,4.5,10.1,51,0.00,,,0.00,WUHU216HW,2013-02-15 05:50:00,
2013-02-14 23:55:00,53.8,36.1,29.80,SSW,203,3.6,6.9,51,0.00,,,0.00,WUHU216HW,2013-02-15 05:55:00,